createdAt,value
2022-09-20T00:01:57.977Z,1.60
2022-09-20T00:04:26.559Z,1.40
2022-09-20T00:06:55.087Z,1.30
2022-09-20T00:09:23.815Z,1.30
2022-09-20T00:11:52.808Z,5.00
2022-09-20T00:14:21.307Z,2.60
2022-09-20T00:16:49.969Z,1.10
2022-09-20T00:19:21.723Z,1.40
2022-09-20T00:21:50.321Z,1.30
2022-09-20T00:24:19.708Z,1.50
2022-09-20T00:26:48.253Z,4.20
2022-09-20T00:29:16.970Z,2.10
2022-09-20T00:31:45.662Z,1.50
2022-09-20T00:34:32.980Z,1.20
2022-09-20T00:37:01.664Z,1.30
2022-09-20T00:39:30.525Z,2.10
2022-09-20T00:41:59.161Z,1.20
2022-09-20T00:45:06.065Z,2.30
2022-09-20T00:47:44.949Z,1.50
2022-09-20T00:50:38.393Z,2.50
2022-09-20T00:53:27.167Z,1.10
2022-09-20T00:56:23.931Z,1.70
2022-09-20T00:59:27.036Z,2.20
2022-09-20T01:02:21.860Z,0.90
2022-09-20T01:04:51.117Z,1.20
2022-09-20T01:07:22.672Z,3.10
2022-09-20T01:09:52.240Z,2.40
2022-09-20T01:12:30.479Z,2.80
2022-09-20T01:15:00.526Z,1.60
2022-09-20T01:17:33.292Z,2.10
2022-09-20T01:20:31.098Z,1.40
2022-09-20T01:23:28.803Z,4.40
2022-09-20T01:26:13.415Z,1.10
2022-09-20T01:28:46.796Z,1.70
2022-09-20T01:31:25.949Z,1.10
2022-09-20T01:34:21.609Z,1.20
2022-09-20T01:37:14.706Z,0.90
2022-09-20T01:40:02.774Z,1.00
2022-09-20T01:42:38.690Z,1.10
2022-09-20T01:45:32.452Z,7.40
2022-09-20T01:48:39.132Z,1.70
2022-09-20T01:51:37.558Z,0.60
2022-09-20T01:54:30.363Z,0.70
2022-09-20T01:57:26.489Z,1.00
2022-09-20T02:00:10.271Z,2.80
2022-09-20T02:02:44.594Z,0.80
2022-09-20T02:05:43.704Z,0.90
2022-09-20T02:08:36.861Z,0.90
2022-09-20T02:13:40.805Z,1.00
2022-09-20T02:16:50.798Z,2.20
2022-09-20T02:19:40.517Z,1.20
2022-09-20T02:22:46.425Z,1.10
2022-09-20T02:25:34.909Z,1.90
2022-09-20T02:28:29.357Z,2.70
2022-09-20T02:31:33.142Z,1.50
2022-09-20T02:34:38.295Z,1.40
2022-09-20T02:37:38.488Z,0.90
2022-09-20T02:40:21.615Z,1.50
2022-09-20T02:43:31.942Z,0.90
2022-09-20T02:46:22.944Z,2.30
2022-09-20T02:49:29.974Z,1.10
2022-09-20T02:52:12.192Z,3.70
2022-09-20T02:54:58.992Z,2.80
2022-09-20T02:57:47.599Z,1.50
2022-09-20T03:00:33.097Z,4.80
2022-09-20T03:03:04.442Z,1.50
2022-09-20T03:06:04.717Z,1.30
2022-09-20T03:08:44.190Z,1.30
2022-09-20T03:12:05.886Z,4.50
2022-09-20T03:14:52.173Z,1.10
2022-09-20T03:17:44.875Z,1.40
2022-09-20T03:21:03.158Z,2.00
2022-09-20T03:24:09.301Z,1.20
2022-09-20T03:27:05.946Z,0.80
2022-09-20T03:30:19.049Z,1.80
2022-09-20T03:33:02.679Z,2.00
2022-09-20T03:36:14.821Z,1.60
2022-09-20T03:39:38.379Z,3.80
2022-09-20T03:45:05.936Z,1.80
2022-09-20T03:48:02.140Z,4.40
2022-09-20T03:51:12.834Z,2.80
2022-09-20T03:54:22.784Z,1.80
2022-09-20T03:57:16.443Z,1.00
2022-09-20T04:01:09.468Z,1.50
2022-09-20T04:04:04.577Z,1.10
2022-09-20T04:06:57.414Z,2.20
2022-09-20T04:10:20.046Z,2.40
2022-09-20T04:13:36.646Z,2.00
2022-09-20T04:16:19.556Z,1.00
2022-09-20T04:19:06.946Z,2.90
2022-09-20T04:21:54.037Z,2.00
2022-09-20T04:24:53.266Z,1.80
2022-09-20T04:28:01.129Z,2.80
2022-09-20T04:30:46.314Z,2.80
2022-09-20T04:33:28.564Z,1.70
2022-09-20T04:36:30.382Z,3.00
2022-09-20T04:39:40.586Z,1.00
2022-09-20T04:43:05.053Z,4.90
2022-09-20T04:45:55.667Z,1.30
2022-09-20T04:52:26.041Z,1.20
2022-09-20T04:55:15.393Z,2.00
2022-09-20T04:58:21.499Z,1.00
2022-09-20T05:01:16.897Z,2.00
2022-09-20T05:04:31.933Z,7.20
2022-09-20T05:07:44.086Z,3.80
2022-09-20T05:10:33.936Z,4.30
2022-09-20T05:13:11.595Z,4.00
2022-09-20T05:16:43.389Z,1.70
2022-09-20T05:19:34.183Z,2.10
2022-09-20T05:22:21.382Z,3.10
2022-09-20T05:25:28.283Z,2.60
2022-09-20T05:28:16.718Z,1.60
2022-09-20T05:30:45.824Z,3.20
2022-09-20T05:33:55.936Z,2.60
2022-09-20T05:37:05.272Z,3.20
2022-09-20T05:40:02.952Z,2.00
2022-09-20T05:42:47.588Z,1.90
2022-09-20T05:45:59.779Z,1.10
2022-09-20T05:48:59.753Z,1.10
2022-09-20T05:52:28.174Z,2.80
2022-09-20T05:55:42.846Z,3.20
2022-09-20T05:58:36.084Z,4.70
2022-09-20T06:01:37.818Z,2.00
2022-09-20T06:04:27.169Z,4.90
2022-09-20T06:07:23.200Z,3.50
2022-09-20T06:10:31.436Z,3.30
2022-09-20T06:13:41.840Z,4.50
2022-09-20T06:16:21.363Z,2.40
2022-09-20T06:19:21.330Z,2.70
2022-09-20T06:22:03.497Z,4.10
2022-09-20T06:25:03.404Z,2.60
2022-09-20T06:27:55.835Z,4.20
2022-09-20T06:30:40.074Z,4.00
2022-09-20T06:33:08.782Z,6.30
2022-09-20T06:35:54.681Z,3.10
2022-09-20T06:39:04.591Z,3.80
2022-09-20T06:41:36.718Z,6.60
2022-09-20T06:44:07.106Z,7.70
2022-09-20T06:46:37.093Z,7.90
2022-09-20T06:49:09.723Z,4.20
2022-09-20T06:51:40.176Z,7.40
2022-09-20T06:54:17.358Z,7.00
2022-09-20T06:56:50.164Z,4.80
2022-09-20T07:01:47.993Z,7.10
2022-09-20T07:04:16.703Z,1.50
2022-09-20T07:06:45.295Z,5.10
2022-09-20T07:09:13.856Z,8.50
2022-09-20T07:11:43.260Z,6.60
2022-09-20T07:14:12.142Z,5.00
2022-09-20T07:16:40.772Z,6.80
2022-09-20T07:19:09.388Z,5.00
2022-09-20T07:21:37.945Z,7.80
2022-09-20T07:24:08.116Z,8.40
2022-09-20T07:26:39.181Z,5.10
2022-09-20T07:29:08.150Z,9.40
2022-09-20T07:31:36.825Z,10.90
2022-09-20T07:34:06.476Z,5.10
2022-09-20T07:36:35.207Z,6.20
2022-09-20T07:39:04.215Z,9.70
2022-09-20T07:41:32.774Z,9.70
2022-09-20T07:44:21.110Z,9.80
2022-09-20T07:47:00.493Z,6.20
2022-09-20T07:49:32.554Z,3.80
2022-09-20T07:52:01.258Z,9.10
2022-09-20T07:54:30.109Z,7.10
2022-09-20T07:56:58.581Z,6.10
2022-09-20T07:59:27.256Z,4.50
2022-09-20T08:01:57.947Z,5.10
2022-09-20T08:04:27.517Z,10.40
2022-09-20T08:06:57.827Z,6.30
2022-09-20T08:09:28.698Z,4.50
2022-09-20T08:11:57.666Z,8.80
2022-09-20T08:14:26.805Z,2.40
2022-09-20T08:16:58.438Z,6.90
2022-09-20T08:19:28.083Z,2.20
2022-09-20T08:21:56.700Z,5.70
2022-09-20T08:24:27.044Z,5.80
2022-09-20T08:26:55.506Z,3.40
2022-09-20T08:29:23.994Z,8.10
2022-09-20T08:31:53.136Z,9.20
2022-09-20T08:34:21.667Z,6.20
2022-09-20T08:36:52.894Z,13.90
2022-09-20T08:42:33.570Z,5.10
2022-09-20T08:47:38.615Z,6.10
2022-09-20T08:52:44.013Z,7.10
2022-09-20T08:55:24.517Z,2.80
2022-09-20T08:57:58.384Z,3.00
2022-09-20T09:00:34.200Z,3.30
2022-09-20T09:03:12.800Z,4.50
2022-09-20T09:05:56.217Z,4.70
2022-09-20T09:08:31.219Z,4.00
2022-09-20T09:11:09.756Z,5.40
2022-09-20T09:13:49.692Z,7.20
2022-09-20T09:16:25.750Z,3.90
2022-09-20T09:18:57.943Z,4.10
2022-09-20T09:21:31.953Z,5.50
2022-09-20T09:24:14.053Z,2.70
2022-09-20T09:26:44.136Z,3.10
2022-09-20T09:29:21.004Z,5.70
2022-09-20T09:31:53.199Z,4.70
2022-09-20T09:34:34.280Z,3.10
2022-09-20T09:37:02.937Z,2.90
2022-09-20T09:39:38.394Z,1.50
2022-09-20T09:42:33.478Z,3.40
2022-09-20T09:45:14.442Z,3.50
2022-09-20T09:47:42.965Z,1.90
2022-09-20T09:50:33.960Z,2.80
2022-09-20T09:53:13.832Z,6.70
2022-09-20T09:56:21.136Z,2.10
2022-09-20T09:58:59.313Z,3.00
2022-09-20T10:02:10.570Z,2.20
2022-09-20T10:05:02.169Z,1.70
2022-09-20T10:08:08.119Z,1.80
2022-09-20T10:11:15.284Z,1.90
2022-09-20T10:13:58.926Z,1.80
2022-09-20T10:17:01.283Z,1.50
2022-09-20T10:20:06.633Z,1.80
2022-09-20T10:23:34.461Z,1.40
2022-09-20T10:26:44.218Z,1.30
2022-09-20T10:30:02.166Z,2.10
2022-09-20T10:32:50.242Z,10.10
2022-09-20T10:36:00.291Z,2.30
2022-09-20T10:38:52.940Z,2.10
2022-09-20T10:42:19.340Z,1.50
2022-09-20T10:45:34.921Z,2.00
2022-09-20T10:48:31.757Z,1.20
2022-09-20T10:51:12.851Z,5.40
2022-09-20T10:54:01.431Z,1.90
2022-09-20T10:56:39.686Z,1.60
2022-09-20T10:59:25.027Z,1.40
2022-09-20T11:02:12.981Z,2.80
2022-09-20T11:05:16.621Z,1.10
2022-09-20T11:08:26.717Z,1.20
2022-09-20T11:11:07.672Z,1.60
2022-09-20T11:13:51.142Z,2.60
2022-09-20T11:16:34.847Z,1.00
2022-09-20T11:19:34.893Z,0.90
2022-09-20T11:22:15.374Z,1.00
2022-09-20T11:24:51.400Z,1.00
2022-09-20T11:27:33.048Z,1.40
2022-09-20T11:30:30.570Z,1.20
2022-09-20T11:33:25.854Z,2.10
2022-09-20T11:36:08.294Z,8.10
2022-09-20T11:39:01.861Z,1.80
2022-09-20T11:41:31.920Z,2.00
2022-09-20T11:44:12.708Z,1.10
2022-09-20T11:46:52.631Z,1.30
2022-09-20T11:49:30.527Z,1.30
2022-09-20T11:52:34.535Z,1.80
2022-09-20T11:55:37.020Z,1.50
2022-09-20T11:58:10.438Z,1.50
2022-09-20T12:00:43.753Z,2.70
2022-09-20T12:03:27.020Z,1.60
2022-09-20T12:06:03.878Z,2.50
2022-09-20T12:08:40.668Z,1.60
2022-09-20T12:11:16.337Z,1.50
2022-09-20T12:13:59.852Z,1.40
2022-09-20T12:16:44.768Z,1.40
2022-09-20T12:19:34.051Z,6.80
2022-09-20T12:22:04.279Z,1.80
2022-09-20T12:24:45.335Z,5.30
2022-09-20T12:27:43.550Z,2.40
2022-09-20T12:30:22.756Z,1.40
2022-09-20T12:32:58.239Z,1.50
2022-09-20T12:35:35.858Z,1.40
2022-09-20T12:38:40.101Z,1.30
2022-09-20T12:41:14.430Z,1.40
2022-09-20T12:44:41.756Z,3.40
2022-09-20T12:47:10.328Z,1.60
2022-09-20T12:50:06.493Z,1.90
2022-09-20T12:52:53.382Z,2.30
2022-09-20T12:55:49.945Z,2.60
2022-09-20T12:58:24.417Z,1.60
2022-09-20T13:00:56.087Z,1.80
2022-09-20T13:03:43.329Z,2.90
2022-09-20T13:06:15.805Z,3.40
2022-09-20T13:11:56.912Z,3.70
2022-09-20T13:14:32.026Z,1.40
2022-09-20T13:17:16.667Z,2.00
2022-09-20T13:19:50.250Z,2.00
2022-09-20T13:22:46.065Z,1.90
2022-09-20T13:25:17.644Z,3.10
2022-09-20T13:28:10.730Z,6.70
2022-09-20T13:30:42.613Z,2.10
2022-09-20T13:33:26.131Z,2.20
2022-09-20T13:35:58.811Z,2.00
2022-09-20T13:38:32.010Z,1.80
2022-09-20T13:41:13.219Z,1.60
2022-09-20T13:43:46.668Z,1.70
2022-09-20T13:46:31.438Z,2.30
2022-09-20T13:49:24.088Z,1.60
2022-09-20T13:51:52.769Z,1.60
2022-09-20T13:54:31.263Z,1.80
2022-09-20T13:57:04.494Z,1.60
2022-09-20T13:59:45.108Z,1.70
2022-09-20T14:02:33.544Z,2.60
2022-09-20T14:05:07.486Z,2.40
2022-09-20T14:07:37.113Z,3.20
2022-09-20T14:10:27.579Z,2.00
2022-09-20T14:12:59.142Z,2.10
2022-09-20T14:15:36.362Z,3.20
2022-09-20T14:18:07.832Z,3.90
2022-09-20T14:20:36.439Z,2.60
2022-09-20T14:23:05.137Z,2.80
2022-09-20T14:25:33.977Z,5.10
2022-09-20T14:28:20.402Z,3.00
2022-09-20T14:30:48.999Z,3.30
2022-09-20T14:33:21.610Z,2.60
2022-09-20T14:35:52.362Z,2.30
2022-09-20T14:38:27.211Z,2.30
2022-09-20T14:40:57.002Z,4.60
2022-09-20T14:43:35.055Z,2.40
2022-09-20T14:46:12.534Z,2.40
2022-09-20T14:48:42.192Z,2.40
2022-09-20T14:51:22.871Z,2.20
2022-09-20T14:54:14.044Z,3.10
2022-09-20T14:56:54.754Z,3.30
2022-09-20T14:59:37.375Z,3.50
2022-09-20T15:02:14.030Z,4.30
2022-09-20T15:04:54.682Z,3.00
2022-09-20T15:07:23.542Z,3.50
2022-09-20T15:09:52.208Z,5.10
2022-09-20T15:12:21.741Z,4.70
2022-09-20T15:14:50.359Z,3.60
2022-09-20T15:17:21.828Z,3.40
2022-09-20T15:19:50.521Z,2.10
2022-09-20T15:22:19.103Z,4.20
2022-09-20T15:24:47.678Z,2.20
2022-09-20T15:27:16.361Z,8.40
2022-09-20T15:29:44.932Z,2.50
2022-09-20T15:32:13.625Z,5.20
2022-09-20T15:34:42.263Z,3.10
2022-09-20T15:37:10.844Z,3.00
2022-09-20T15:39:39.447Z,2.60
2022-09-20T15:42:08.154Z,4.00
2022-09-20T15:44:36.861Z,4.20
2022-09-20T15:47:05.615Z,4.10
2022-09-20T15:49:34.464Z,6.60
2022-09-20T15:52:03.335Z,11.00
2022-09-20T15:54:32.030Z,5.60
2022-09-20T15:57:00.698Z,5.70
2022-09-20T15:59:29.579Z,4.40
2022-09-20T16:01:59.720Z,7.30
2022-09-20T16:04:28.519Z,6.90
2022-09-20T16:06:57.276Z,3.90
2022-09-20T16:09:26.542Z,5.70
2022-09-20T16:11:58.944Z,4.00
2022-09-20T16:16:59.155Z,4.10
2022-09-20T16:19:28.068Z,4.90
2022-09-20T16:21:58.920Z,4.40
2022-09-20T16:24:31.965Z,5.70
2022-09-20T16:27:02.405Z,7.00
2022-09-20T16:29:31.820Z,6.00
2022-09-20T16:32:03.846Z,6.70
2022-09-20T16:34:36.911Z,7.10
2022-09-20T16:37:16.931Z,6.70
2022-09-20T16:39:45.780Z,4.30
2022-09-20T16:42:16.172Z,6.70
2022-09-20T16:44:44.878Z,6.40
2022-09-20T16:47:25.370Z,3.60
2022-09-20T16:49:57.223Z,5.00
2022-09-20T16:52:26.760Z,3.90
2022-09-20T16:54:56.387Z,6.10
2022-09-20T16:57:26.087Z,4.50
2022-09-20T16:59:55.997Z,5.10
2022-09-20T17:02:24.847Z,6.70
2022-09-20T17:04:53.732Z,7.80
2022-09-20T17:07:23.836Z,5.50
2022-09-20T17:09:53.791Z,5.70
2022-09-20T17:12:25.280Z,4.70
2022-09-20T17:14:53.822Z,6.50
2022-09-20T17:17:23.180Z,8.40
2022-09-20T17:19:52.114Z,5.10
2022-09-20T17:22:21.296Z,10.80
2022-09-20T17:24:50.189Z,5.40
2022-09-20T17:27:19.305Z,10.20
2022-09-20T17:29:48.242Z,7.70
2022-09-20T17:32:19.597Z,11.50
2022-09-20T17:34:48.899Z,10.30
2022-09-20T17:37:17.781Z,12.10
2022-09-20T17:39:46.466Z,10.80
2022-09-20T17:42:15.064Z,9.20
2022-09-20T17:44:43.732Z,11.00
2022-09-20T17:47:12.430Z,8.60
2022-09-20T17:49:40.943Z,13.90
2022-09-20T17:52:11.436Z,8.50
2022-09-20T17:54:40.315Z,6.60
2022-09-20T17:57:08.923Z,10.40
2022-09-20T17:59:37.654Z,6.70
2022-09-20T18:02:09.202Z,5.60
2022-09-20T18:04:38.651Z,9.00
2022-09-20T18:07:10.225Z,14.20
2022-09-20T18:09:39.052Z,11.70
2022-09-20T18:12:15.084Z,9.50
2022-09-20T18:14:46.177Z,10.90
2022-09-20T18:17:14.990Z,9.90
2022-09-20T18:19:47.380Z,12.00
2022-09-20T18:22:16.246Z,10.20
2022-09-20T18:24:45.017Z,14.10
2022-09-20T18:27:13.869Z,12.90
2022-09-20T18:29:43.369Z,13.20
2022-09-20T18:32:12.677Z,10.20
2022-09-20T18:34:41.451Z,8.70
2022-09-20T18:37:14.525Z,12.00
2022-09-20T18:39:43.803Z,11.40
2022-09-20T18:42:14.989Z,8.60
2022-09-20T18:44:44.264Z,11.00
2022-09-20T18:47:12.788Z,9.60
2022-09-20T18:49:41.374Z,15.30
2022-09-20T18:52:12.452Z,8.80
2022-09-20T18:54:41.065Z,8.40
2022-09-20T18:57:11.042Z,12.30
2022-09-20T18:59:44.244Z,9.60
2022-09-20T19:02:50.410Z,11.70
2022-09-20T19:05:45.745Z,19.40
2022-09-20T19:09:15.269Z,16.50
2022-09-20T19:11:58.706Z,16.80
2022-09-20T19:14:59.740Z,10.80
2022-09-20T19:18:01.531Z,11.10
2022-09-20T19:20:48.423Z,13.10
2022-09-20T19:23:52.259Z,8.80
2022-09-20T19:26:30.357Z,9.60
2022-09-20T19:29:00.858Z,10.30
2022-09-20T19:31:33.165Z,12.50
2022-09-20T19:37:18.905Z,9.40
2022-09-20T19:40:11.713Z,9.70
2022-09-20T19:43:23.925Z,11.00
2022-09-20T19:46:46.933Z,13.40
2022-09-20T19:49:16.930Z,10.90
2022-09-20T19:51:45.740Z,11.10
2022-09-20T19:54:15.362Z,9.50
2022-09-20T19:57:18.642Z,6.60
2022-09-20T20:02:18.022Z,11.60
2022-09-20T20:04:47.063Z,8.40
2022-09-20T20:08:10.736Z,7.30
2022-09-20T20:10:57.661Z,7.00
2022-09-20T20:14:02.941Z,8.80
2022-09-20T20:17:14.906Z,5.20
2022-09-20T20:20:01.289Z,4.70
2022-09-20T20:22:53.990Z,6.80
2022-09-20T20:25:41.867Z,5.40
2022-09-20T20:28:10.408Z,6.50
2022-09-20T20:30:39.187Z,5.50
2022-09-20T20:33:08.390Z,5.20
2022-09-20T20:35:37.608Z,5.60
2022-09-20T20:38:11.819Z,3.80
2022-09-20T20:40:40.945Z,4.70
2022-09-20T20:43:09.971Z,6.00
2022-09-20T20:45:39.055Z,7.60
2022-09-20T20:48:07.856Z,6.80
2022-09-20T20:50:37.091Z,6.50
2022-09-20T20:53:06.902Z,7.90
2022-09-20T20:55:35.658Z,8.00
2022-09-20T20:58:04.476Z,7.40
2022-09-20T21:00:33.626Z,5.90
2022-09-20T21:03:03.470Z,6.80
2022-09-20T21:05:32.614Z,6.00
2022-09-20T21:08:02.438Z,8.00
2022-09-20T21:10:31.142Z,6.90
2022-09-20T21:13:00.793Z,5.40
2022-09-20T21:15:29.589Z,5.60
2022-09-20T21:17:58.303Z,6.50
2022-09-20T21:20:27.020Z,7.00
2022-09-20T21:22:57.075Z,8.50
2022-09-20T21:25:25.728Z,10.60
2022-09-20T21:27:54.408Z,7.10
2022-09-20T21:30:23.045Z,4.90
2022-09-20T21:32:56.386Z,13.00
2022-09-20T21:35:24.990Z,4.40
2022-09-20T21:37:53.597Z,8.00
2022-09-20T21:40:22.190Z,6.00
2022-09-20T21:42:52.831Z,4.30
2022-09-20T21:45:25.026Z,4.60
2022-09-20T21:47:54.627Z,2.40
2022-09-20T21:50:23.318Z,3.90
2022-09-20T21:52:52.020Z,3.70
2022-09-20T21:55:20.636Z,3.50
2022-09-20T21:57:49.367Z,2.20
2022-09-20T22:00:18.062Z,2.70
2022-09-20T22:02:46.735Z,2.00
2022-09-20T22:05:15.440Z,2.20
2022-09-20T22:07:44.040Z,4.10
2022-09-20T22:10:12.645Z,2.30
2022-09-20T22:12:41.240Z,2.90
2022-09-20T22:15:10.768Z,2.30
2022-09-20T22:17:39.243Z,3.20
2022-09-20T22:20:08.445Z,3.70
2022-09-20T22:22:37.097Z,2.60
2022-09-20T22:25:06.212Z,3.70
2022-09-20T22:27:34.875Z,2.20
2022-09-20T22:30:05.063Z,2.30
2022-09-20T22:32:33.981Z,2.80
2022-09-20T22:35:02.640Z,2.60
2022-09-20T22:37:31.177Z,2.90
2022-09-20T22:39:59.967Z,1.90
2022-09-20T22:42:28.813Z,1.90
2022-09-20T22:44:59.673Z,2.60
2022-09-20T22:47:28.360Z,2.50
2022-09-20T22:49:56.888Z,2.20
2022-09-20T22:52:25.461Z,2.10
2022-09-20T22:54:53.947Z,3.20
2022-09-20T22:57:22.552Z,4.60
2022-09-20T22:59:51.085Z,2.60
2022-09-20T23:02:19.598Z,3.30
2022-09-20T23:04:48.135Z,3.90
2022-09-20T23:07:16.781Z,2.80
2022-09-20T23:09:46.195Z,3.10
2022-09-20T23:12:14.698Z,3.20
2022-09-20T23:14:43.289Z,3.10
2022-09-20T23:17:11.843Z,2.70
2022-09-20T23:19:40.446Z,3.00
2022-09-20T23:22:08.985Z,2.50
2022-09-20T23:24:37.556Z,2.80
2022-09-20T23:27:06.977Z,2.40
2022-09-20T23:29:35.501Z,2.60
2022-09-20T23:32:04.188Z,4.50
2022-09-20T23:34:32.785Z,3.30
2022-09-20T23:37:01.397Z,3.10
2022-09-20T23:39:30.024Z,2.70
2022-09-20T23:41:58.578Z,3.90
2022-09-20T23:44:27.095Z,2.30
2022-09-20T23:46:55.611Z,1.80
2022-09-20T23:49:24.376Z,1.90
2022-09-20T23:51:52.877Z,3.20
2022-09-20T23:54:21.444Z,3.30
2022-09-20T23:56:50.046Z,8.90
2022-09-20T23:59:19.080Z,5.50
